Weather observations for the past three days for
Giddings, Giddings-Lee County Airport
Metric (Imperial)
Date Time (cdt) Wind (kph) Vis. (km) Weather Sky Cond. Temperature (ºC) Relative Humidity Wind Chill (°C) Heat Index (°C) Pressure Precipitation (cm)
Air Dwpt 6 hour altimeter (cm) sea level (mb) 1 hr 3 hr 6 hr
Max. Min.
05 11:15 SW 9 0.00 Partly Cloudy SCT030 31.3 23.3 62% 36 76.2 0.0
05 10:55 S 9 0.00 Fair CLR 30.8 23.7 66% 36 76.23 0.0
05 10:35 SW 7 0.00 Fair CLR 30.3 24 69% 36 76.23 0.0
05 10:15 Calm 0.00 Mostly Cloudy BKN017 BKN031 BKN036 29.6 24.6 75% 35 76.23 0.0
05 09:55 Calm 0.00 Mostly Cloudy BKN014 28.7 25.1 81% 34 76.2 0.0
05 09:35 S 7 0.00 Partly Cloudy SCT010 SCT015 28.6 25.4 83% 34 76.2 0.0
05 09:15 Calm 0.00 NULL NULL 27.5 25.5 89% 32 76.2 0.0
05 08:55 Calm 0.00 NULL NULL 26.9 25.3 91% 31 76.2 0.0
05 08:35 Calm 0.00 NULL NULL 26 25.1 95% 28 76.2 0.0
05 08:15 Calm 0.00 NULL NULL 25.3 24.7 96% 26 76.17 0.0
05 07:55 Calm 0.00 NULL NULL 24.8 24.3 97% 25 76.17 0.0
05 07:35 Calm 0.00 NULL NULL 23.7 23.1 96% 76.15 0.0
05 07:15 Calm 0.00 NULL NULL 23.7 23.2 97% 76.15 0.0
05 06:55 Calm 0.00 NULL NULL 23.5 22.9 25.5 23.3 96% 76.12 0.0
05 06:35 Calm 0.00 NULL NULL 23.5 23 97% 76.12 0.0
05 06:15 Calm 0.00 NULL NULL 24.2 23.6 96% 23 76.1 0.0
05 05:55 Calm 0.00 NULL NULL 23.7 23.1 96% 76.1 0.0
05 05:35 Calm 0.00 NULL NULL 23.5 23 97% 76.07 0.0
05 05:15 Calm 0.00 NULL NULL 24 23.3 96% 23 76.1 0.0
05 04:55 Calm 0.00 NULL NULL 23.7 23.1 96% 76.1 0.0
05 04:35 Calm 0.00 NULL NULL 24.5 23.6 95% 24 76.1 0.0
05 04:15 Calm 0.00 NULL NULL 23.8 23.1 96% 76.1 0.0
05 03:55 Calm 0.00 NULL NULL 24.1 23.3 95% 23 76.1 0.0
05 03:35 Calm 0.00 NULL NULL 24.5 23.5 94% 24 76.1 0.0
05 03:15 Calm 0.00 NULL NULL 24.8 23.7 94% 25 76.1 0.0
05 02:55 Calm 0.00 NULL NULL 24.7 23.5 93% 25 76.07 0.0
05 02:35 Calm 0.00 NULL NULL 24.7 23.7 94% 25 76.1 0.0
05 02:15 Calm 0.00 NULL NULL 25 23.6 92% 26 76.1 0.0
05 01:55 Calm 0.00 NULL NULL 25 23.6 92% 26 76.12 0.0
05 01:35 Calm 0.00 NULL NULL 25.2 23.5 90% 26 76.15 0.0
05 01:15 Calm 0.00 NULL NULL 25.5 23.5 89% 27 76.15 0.0
05 00:55 Calm 0.00 NULL NULL 25.5 23.3 30.8 25.2 88% 27 76.15 0.0
05 00:35 Calm 0.00 Fair CLR 26 23.3 85% 28 76.15 0.0
05 00:15 Calm 0.00 Fair CLR 25.9 23.2 85% 28 76.15 0.0
04 23:55 Calm 0.00 Fair CLR 25.9 23.2 85% 28 76.15 0.0
04 23:35 Calm 0.00 Fair CLR 26 23.3 85% 28 76.15 0.0
04 23:15 Calm 0.00 NULL NULL 25.3 23.7 91% 26 76.15 0.0
04 22:55 Calm 0.00 NULL NULL 25.5 23.6 89% 27 76.15 0.0
04 22:35 Calm 0.00 Fair CLR 25.9 23.5 87% 28 76.15 0.0
04 22:15 Calm 0.00 Fair CLR 26.9 23.6 82% 30 76.12 0.0
04 21:55 Calm 0.00 Fair CLR 27.1 23.6 81% 30 76.12 0.0
04 21:35 Calm 0.00 Fair CLR 27.1 23.5 81% 30 76.12 0.0
04 21:15 Calm 0.00 Fair CLR 27 23.2 80% 30 76.1 0.0
04 20:55 Calm 0.00 Fair CLR 27.7 23 76% 31 76.07 0.0
04 20:35 Calm 0.00 Fair CLR 27.9 22.8 74% 31 76.07 0.0
04 20:15 Calm 0.00 Fair CLR 27.4 22.9 77% 30 76.05 0.0
04 19:35 Calm 0.00 Fair CLR 29.7 22.1 64% 33 76.02 0.0
04 19:15 S 6 0.00 Fair CLR 30.4 22.5 63% 34 76.02 0.0
04 18:55 SE 6 0.00 Fair CLR 30.8 22.8 32.4 26.2 62% 35 76.02 0.0
04 18:35 SE 9 0.00 Fair CLR 31 23 62% 35 76.02 0.0
04 18:15 SE 9 0.00 Fair CLR 31 23.2 63% 36 76.02 0.0
04 17:55 SE 13 0.00 Fair CLR 30.7 23.3 65% 35 76.02 0.0
04 17:35 SE 13 0.00 Fair CLR 30.6 23.6 66% 36 76.05 0.0
04 17:15 S 9 0.00 Fair CLR 30.4 23.6 67% 35 76.05 0.0
04 16:55 S 13 0.00 Partly Cloudy SCT046 SCT050 30 23.7 69% 35 76.05 0.0
04 16:35 SE 15 0.00 Partly Cloudy SCT037 SCT046 30.1 24.4 72% 36 76.07 0.0
04 16:15 Calm 0.00 Fair CLR 29.5 22.8 67% 33 76.1 0.0
04 15:55 Calm 0.00 Partly Cloudy SCT050 SCT065 SCT080 28.4 23 73% 32 76.07 0.0
04 15:35 Calm 0.00 Overcast SCT050 BKN070 OVC100 27.2 22.2 74% 30 76.07 0.0
04 15:15 Calm 0.00 Overcast SCT041 BKN080 OVC095 26.6 22.5 78% 29 76.1 0.0
04 14:55 SE 6 0.00 Partly Cloudy SCT041 SCT050 26.9 21.3 71% 29 76.12 0.0
04 14:35 SE 9 0.00 Fair CLR 29.5 21.6 63% 32 76.15 0.0
04 14:15 SE 13 0.00 Partly Cloudy SCT110 31.5 22.5 59% 36 76.15 0.0
04 13:55 Calm 0.00 Mostly Cloudy BKN110 31.6 21.9 56% 35 76.15 0.0
04 13:35 SW 6 0.00 Overcast SCT039 SCT046 OVC110 32.3 22.6 57% 37 76.17 0.0
04 13:15 SW 6 0.00 Mostly Cloudy SCT039 BKN048 BKN065 31.5 21.5 55% 35 76.2 0.0
04 12:55 W 7 0.00 Partly Cloudy SCT039 SCT060 SCT090 30.9 22 32.3 26 59% 34 76.2 0.0
04 12:35 Calm 16.09 Fair CLR 31.6 22.8 60% 36 76.2 0.0
04 12:15 Calm 0.00 Mostly Cloudy BKN035 BKN043 BKN050 31.9 22.6 58% 36 76.23 0.0
04 11:55 Calm 0.00 Mostly Cloudy SCT029 BKN035 BKN045 31 23.2 63% 36 76.23 0.0
04 11:35 Calm 0.00 Partly Cloudy SCT038 SCT047 30.3 23.9 69% 35 76.23 0.0
04 11:15 SE 6 0.00 Partly Cloudy SCT021 SCT029 SCT036 30.2 23.9 69% 35 76.23 0.0
04 10:55 SE 7 0.00 Mostly Cloudy SCT017 BKN021 BKN027 30.2 24.8 73% 36 76.23 0.0
04 10:35 S 6 0.00 Partly Cloudy SCT012 SCT018 29.5 25.3 78% 36 76.23 0.0
04 10:15 Calm 0.00 Partly Cloudy SCT012 28.8 25.5 82% 35 76.23 0.0
04 09:55 S 6 0.00 Partly Cloudy SCT008 SCT013 28.2 25.6 86% 34 76.2 0.0
04 09:35 Calm 0.00 NULL NULL 27.4 25.7 90% 32 76.2 0.0
04 09:15 Calm 0.00 NULL NULL 27.1 25.6 92% 31 76.2 0.0
04 08:55 Calm 0.00 NULL NULL 27 25.7 93% 31 76.17 0.0
04 08:35 Calm 0.00 Mostly Cloudy BKN110 26.5 25.6 95% 30 76.17 0.0
04 08:15 Calm 0.00 Overcast OVC100 26.1 25.3 95% 29 76.15 0.0
04 07:55 Calm 0.00 Mostly Cloudy BKN110 26 25.1 95% 28 76.15 0.0
04 07:35 Calm 0.00 Overcast OVC120 26 25.1 95% 28 76.12 0.0
04 07:15 Calm 0.00 Overcast OVC110 26 25 94% 28 76.1 0.0
04 06:55 SW 6 0.00 NULL NULL 26 25.1 26.5 25.8 95% 28 76.07 0.0 0.03 0.1
04 06:35 S 7 0.00 NULL NULL 25.8 25 95% 28 76.07 0.0 0.03
04 06:15 SW 6 0.00 NULL NULL 25.8 25 95% 28 76.1 0.0
04 05:55 Calm 0.00 Overcast OVC120 25.9 25 95% 28 76.12 0.0 0.05
04 05:35 Calm 0.00 Overcast OVC110 25.9 24.9 94% 28 76.1 0.0 0.05
04 05:15 S 6 0.00 NULL NULL 26 24.8 93% 28 76.1 0.0
04 04:55 Calm 0.00 NULL NULL 25.8 24.6 93% 28 76.1 0.0 0.03
04 04:35 Calm 0.00 NULL NULL 26 24.5 91% 28 76.1 0.0
04 04:15 Calm 0.00 NULL NULL 26 24.5 91% 28 76.07 0.0
04 03:55 Calm 0.00 NULL NULL 26 24.3 90% 28 76.07 0.0
04 03:35 Calm 0.00 Mostly Cloudy BKN100 26 24.3 90% 28 76.07 0.0
04 03:15 Calm 0.00 Mostly Cloudy BKN100 26 24.3 90% 28 76.07 0.0
04 02:55 Calm 0.00 NULL NULL 26 24.2 90% 28 76.07 0.0
04 02:35 Calm 16.09 Partly Cloudy SCT110 26 24.1 89% 28 76.1 0.0
04 02:15 Calm 0.00 NULL NULL 26.1 24.1 89% 28 76.1 0.0
04 01:55 Calm 0.00 NULL NULL 26.2 24.1 88% 28 76.1 0.0
04 01:35 Calm 0.00 NULL NULL 26.3 24.1 88% 29 76.12 0.0
04 01:15 Calm 0.00 Partly Cloudy SCT019 26.5 24 86% 29 76.1 0.0
04 00:55 S 6 0.00 Fair CLR 26.5 24 28.5 26.5 86% 29 76.1 0.0
04 00:35 S 7 0.00 Fair CLR 26.5 24 86% 29 76.1 0.0
04 00:15 S 7 0.00 Fair CLR 26.5 24 86% 29 76.07 0.0
03 23:55 S 6 0.00 Fair CLR 26.6 24 86% 29 76.07 0.0
03 23:35 S 9 0.00 Fair CLR 26.6 23.8 85% 29 76.1 0.0
03 23:15 S 11 0.00 Fair CLR 26.6 23.8 85% 29 76.07 0.0
03 22:55 SE 9 0.00 Fair CLR 26.6 23.7 84% 29 76.07 0.0
03 22:35 S 9 0.00 Fair CLR 26.6 23.7 84% 29 76.1 0.0
03 22:15 S 9 0.00 Fair CLR 26.6 23.5 83% 29 76.1 0.0
03 21:55 SE 11 0.00 Fair CLR 26.7 23.5 83% 29 76.07 0.0
03 21:35 SE 13 0.00 Fair CLR 26.7 23.3 82% 29 76.07 0.0
03 21:15 SE 11 0.00 Fair CLR 26.6 23.1 81% 29 76.05 0.0
03 20:55 SE 13 0.00 Fair CLR 26.8 23 80% 29 76.02 0.0
03 20:35 SE 13 0.00 Fair CLR 27.1 23 78% 30 76.02 0.0
03 20:15 SE 11 0.00 Fair CLR 27.5 23 77% 30 76 0.0
03 19:55 SE 15 0.00 Fair CLR 27.7 22.4 73% 30 76 0.0
03 19:35 SE 9 0.00 Fair CLR 28.2 22 69% 31 76 0.0
03 19:15 SE 15 0.00 Fair CLR 28.4 21.8 67% 31 76 0.0
03 18:55 SE 15 0.00 Fair CLR 28.5 22 34.6 28.5 68% 31 76 0.0
03 18:35 SE 7 0.00 Fair CLR 28.7 21.7 66% 31 75.97 0.0
03 18:15 SE 17 0.00 Fair CLR 28.8 21.5 65% 31 76 0.0
03 17:55 E 11 0.00 Fair CLR 29.2 21.8 64% 32 76 0.0
03 17:35 SE 20 G 28 0.00 Fair CLR 29.4 21.9 64% 32 75.97 0.0
03 17:15 SE 15 G 28 0.00 Fair CLR 28.6 21.9 67% 31 75.97 0.0
03 16:55 SE 22 G 41 0.00 Fair CLR 28.8 21.9 66% 32 76 0.0
03 16:35 SE 24 G 33 0.00 Fair CLR 29.2 22.5 67% 33 76 0.0
03 16:15 E 22 G 41 0.00 Fair CLR 30.6 23 64% 35 76.02 0.0
03 15:55 E 15 G 35 16.09 Fair CLR 30.6 22.8 63% 35 76.02 0.0
03 15:35 E 20 G 28 16.09 Fair CLR 33.1 23 55% 38 76 0.0
03 15:15 E 19 G 28 16.09 Fair CLR 33.4 23.1 55% 39 76.02 0.0
03 14:55 E 17 16.09 Fair CLR 33.3 22.6 53% 38 76.02 0.0
03 14:35 E 11 16.09 Fair CLR 33.9 21.7 49% 38 76.02 0.0
03 14:15 E 6 16.09 Partly Cloudy SCT050 33.6 21.6 49% 37 76.05 0.0
03 13:55 SE 9 16.09 Mostly Cloudy BKN048 33.9 22.2 50% 38 76.07 0.0
03 13:35 SE 6 0.00 Mostly Cloudy BKN046 34.6 22.2 48% 39 76.07 0.0
03 13:15 SE 7 0.00 Mostly Cloudy BKN044 BKN100 33.6 22.2 51% 38 76.1 0.0
03 12:55 E 9 0.00 Overcast BKN044 OVC100 33.1 22.3 33.4 26.1 53% 37 76.12 0.0
03 12:35 SE 13 16.09 Mostly Cloudy BKN042 33.1 22.6 54% 38 76.15 0.0
03 12:15 Calm 0.00 Partly Cloudy SCT038 32.7 22.8 56% 37 76.17 0.0
03 11:55 S 9 0.00 Partly Cloudy SCT036 32.6 22.9 57% 37 76.17 0.0
03 11:35 S 11 0.00 Fair CLR 31.6 22.7 59% 36 76.17 0.0
03 11:15 SW 13 0.00 Partly Cloudy SCT028 31.1 23.2 63% 36 76.17 0.0
03 10:55 SW 19 G 30 0.00 Mostly Cloudy BKN026 30.8 23.3 64% 36 76.17 0.0
03 10:35 S 17 G 26 0.00 Partly Cloudy SCT024 30.6 23.9 67% 36 76.15 0.0
03 10:15 S 17 G 33 0.00 Fair CLR 29.2 23.7 72% 34 76.15 0.0
03 09:55 SW 19 G 31 0.00 Fair CLR 28.6 23.6 74% 33 76.15 0.0
03 09:35 SW 13 0.00 Partly Cloudy SCT017 SCT023 28.1 24.3 80% 32 76.15 0.0
03 09:15 SW 20 G 30 0.00 Mostly Cloudy SCT017 BKN025 27.8 24.5 82% 32 76.17 0.0
03 08:55 S 17 G 26 0.00 Mostly Cloudy BKN017 BKN023 27.8 24.8 84% 32 76.17 0.0
03 08:35 SW 9 0.00 Partly Cloudy SCT014 SCT019 27.8 25.1 85% 32 76.15 0.0
03 08:15 S 11 0.00 NULL NULL 27.1 25 88% 31 76.15 0.0
03 07:55 S 9 16.09 Partly Cloudy SCT018 26.5 25 92% 29 76.15 0.0
03 07:35 S 6 0.00 NULL NULL 26.2 25 93% 29 76.15 0.0
03 07:15 S 7 0.00 NULL NULL 26.1 25 94% 28 76.12 0.0
03 06:55 S 7 0.00 Mostly Cloudy BKN019 BKN023 26 25 26.2 25 94% 28 76.1 0.0
03 06:35 S 7 0.00 Mostly Cloudy BKN017 26 25 94% 28 76.1 0.0
03 06:15 S 6 0.00 NULL NULL 26 25 94% 28 76.1 0.0
03 05:55 S 6 16.09 Partly Cloudy SCT017 26 25 94% 28 76.1 0.0
03 05:35 S 6 0.00 NULL NULL 26 25 94% 28 76.1 0.0
03 05:15 Calm 0.00 NULL NULL 26.1 25 94% 28 76.1 0.0
03 04:55 S 7 0.00 NULL NULL 26.2 24.9 93% 29 76.07 0.0
03 04:35 S 7 0.00 NULL NULL 26.1 24.8 93% 28 76.1 0.0
03 04:15 S 6 0.00 NULL NULL 26 24.7 93% 28 76.1 0.0
03 03:55 S 7 0.00 NULL NULL 26 24.6 92% 28 76.1 0.0
03 03:35 S 6 0.00 NULL NULL 26 24.5 91% 28 76.1 0.0
03 03:15 S 6 0.00 NULL NULL 26 24.5 91% 28 76.1 0.0
03 02:55 S 9 0.00 NULL NULL 26 24.2 90% 28 76.07 0.0
03 02:35 S 7 0.00 NULL NULL 25.7 24.1 91% 27 76.1 0.0
03 02:15 S 7 0.00 NULL NULL 25.5 23.8 90% 27 76.1 0.0
03 01:55 S 7 16.09 Fair CLR 25.3 23.6 90% 26 76.1 0.0
03 01:35 S 6 0.00 NULL NULL 25.2 23.5 90% 26 76.12 0.0
03 01:15 S 6 0.00 NULL NULL 25.1 23 88% 26 76.1 0.0
03 00:55 S 7 0.00 NULL NULL 25 22.6 36.3 24.2 87% 26 76.12 0.0 2.13
03 00:35 S 9 0.00 Fair CLR 24.5 21.9 86% 25 76.12 0.0
03 00:15 S 11 16.09 Fair CLR 24.6 21.6 83% 25 76.12 0.0
02 23:55 S 7 16.09 Fair CLR 24.6 21.5 83% 25 76.1 0.0
02 23:35 S 9 0.00 Fair CLR 24.7 21.5 82% 25 76.12 0.0
02 23:15 S 11 0.00 Fair CLR 25 22.2 85% 26 76.12 0.0
02 22:55 S 9 16.09 Fair CLR 25 22.5 86% 26 76.12 0.0
02 22:35 S 13 16.09 Partly Cloudy SCT110 24.5 22.5 89% 25 76.1 0.0
02 22:15 S 11 16.09 Mostly Cloudy BKN100 BKN110 24.5 22.7 90% 25 76.1 0.0
02 21:55 SE 17 G 28 16.09 Light Rain OVC090 24.5 22.6 89% 25 76.12 0.0 1.8 2.13
02 21:35 SE 19 G 30 16.09 Light Rain SCT016 SCT026 OVC100 24.9 23 89% 25 76.1 0.0 1.8
02 21:15 SE 22 G 31 2.01 Heavy Rain BKN013 OVC019 24.8 23.4 92% 25 76.15 0.0 1.63
02 20:55 NW 9 11.27 Heavy Rain SCT043 BKN060 OVC085 26.2 23.1 83% 28 76.15 0.0 0.05
02 20:35 E 13 0.00 Overcast SCT085 OVC110 27 22.6 77% 29 75.97 0.0
02 20:15 E 11 0.00 Overcast OVC110 26.7 22.9 80% 29 75.95 0.0
02 19:55 NE 17 16.09 Light Rain SCT031 BKN095 OVC110 26 22.9 83% 28 75.95 0.0 0.25
02 19:35 NE 22 G 44 0.00 Heavy Rain SCT038 SCT049 OVC080 26.1 22.1 79% 28 75.97 0.0 0.15
02 19:15 NE 28 G 48 0.00 Overcast OVC080 28.4 22 68% 31 75.9 0.0
02 18:55 E 6 0.00 Overcast OVC080 36.3 19.2 39 34.8 37% 39 75.87 0.0
02 18:35 Calm 0.00 Mostly Cloudy BKN080 BKN090 36 19.5 38% 38 75.87 0.0
02 18:15 SE 9 0.00 Partly Cloudy SCT080 35.8 19.3 38% 38 75.87 0.0
02 17:55 S 9 0.00 Fair CLR 36 19.9 39% 39 75.9 0.0
02 17:35 SE 11 0.00 Fair CLR 36.5 19.7 37% 39 75.9 0.0
02 17:15 S 6 16.09 Fair CLR 36.7 19 35% 39 75.9 0.0
02 16:55 SW 7 16.09 Fair CLR 38 18.7 32% 40 75.9 0.0
02 16:35 W 7 16.09 Mostly Cloudy SCT075 BKN095 37.5 18.5 33% 39 75.92 0.0
02 16:15 Calm 16.09 Partly Cloudy SCT075 SCT095 38.3 18.8 32% 41 75.92 0.0
02 15:55 W 6 16.09 Partly Cloudy SCT075 SCT100 38.2 18.9 32% 41 75.95 0.0
02 15:35 Calm 16.09 Partly Cloudy SCT075 SCT100 38.2 18.9 32% 41 75.95 0.0
02 15:15 SW 6 16.09 Fair CLR 37.9 19 33% 40 76 0.0
02 14:55 SW 7 16.09 Mostly Cloudy SCT070 SCT095 BKN110 37.8 18.7 33% 40 76.02 0.0
02 14:35 Calm 16.09 Mostly Cloudy SCT070 SCT095 BKN110 36.8 19.1 35% 39 76.02 0.0
02 14:15 W 9 16.09 Partly Cloudy SCT095 37.4 19.6 35% 40 76.07 0.0
02 13:55 W 9 16.09 Mostly Cloudy SCT070 BKN095 37.1 19.4 35% 40 76.1 0.0
02 13:35 W 13 16.09 Mostly Cloudy SCT060 BKN070 35.8 19.5 38% 38 76.12 0.0
02 13:15 W 9 16.09 Partly Cloudy SCT060 35.6 20.5 41% 39 76.15 0.0
02 12:55 Calm 16.09 Partly Cloudy SCT060 35.1 20.3 35.5 25.7 42% 38 76.17 0.0
02 12:35 Calm 0.00 Fair CLR 34.6 20.7 44% 38 76.2 0.0
02 12:15 W 13 0.00 Fair CLR 34.2 21.1 46% 38 76.23 0.0
02 11:55 SW 7 0.00 Fair CLR 34.1 21.5 48% 38 76.25 0.0
02 11:35 W 11 0.00 Fair CLR 33.6 21.6 49% 37 76.28 0.0
Date Time (cdt) Wind (kph) Vis. (km) Weather Sky Cond. Air Dwpt Max. Min. Relative Humidity Wind Chill (°C) Heat Index (°C) altimeter (cm) sea level (mb) 1 hr 3 hr 6 hr
6 hour
Temperature (ºC) Pressure Precipitation (cm)